sensor_id;sensor_type;location;lat;lon;timestamp;pressure;altitude;pressure_sealevel;temperature;humidity
73422;BME280;61637;47.760;-122.022;2023-08-01T00:00:01;101930.339;;;23.6;44.0
73422;BME280;61637;47.760;-122.022;2023-08-01T00:02:01;101930.339;;;23.6;45.0
73422;BME280;61637;47.760;-122.022;2023-08-01T00:04:01;101930.339;;;23.6;43.0
73422;BME280;61637;47.760;-122.022;2023-08-01T00:06:01;101930.339;;;23.6;44.0
73422;BME280;61637;47.760;-122.022;2023-08-01T00:08:01;101930.339;;;23.6;44.0
73422;BME280;61637;47.760;-122.022;2023-08-01T00:10:01;101930.339;;;23.7;44.0
73422;BME280;61637;47.760;-122.022;2023-08-01T00:12:01;101930.339;;;23.8;44.0
73422;BME280;61637;47.760;-122.022;2023-08-01T00:14:01;101930.339;;;23.8;43.0
73422;BME280;61637;47.760;-122.022;2023-08-01T00:16:01;101930.339;;;23.8;43.0
73422;BME280;61637;47.760;-122.022;2023-08-01T00:18:01;101930.339;;;23.8;44.0
73422;BME280;61637;47.760;-122.022;2023-08-01T00:20:01;101930.339;;;23.8;44.0
73422;BME280;61637;47.760;-122.022;2023-08-01T00:22:01;101930.339;;;23.7;43.0
73422;BME280;61637;47.760;-122.022;2023-08-01T00:24:01;101930.339;;;23.6;45.0
73422;BME280;61637;47.760;-122.022;2023-08-01T00:26:01;101930.339;;;23.6;45.0
73422;BME280;61637;47.760;-122.022;2023-08-01T00:28:01;101930.339;;;23.6;45.0
73422;BME280;61637;47.760;-122.022;2023-08-01T00:30:01;101930.339;;;23.6;46.0
73422;BME280;61637;47.760;-122.022;2023-08-01T00:32:01;101930.339;;;23.7;46.0
73422;BME280;61637;47.760;-122.022;2023-08-01T00:34:01;101930.339;;;23.7;46.0
73422;BME280;61637;47.760;-122.022;2023-08-01T00:36:01;101930.339;;;23.6;45.0
73422;BME280;61637;47.760;-122.022;2023-08-01T00:38:01;101930.339;;;23.6;46.0
73422;BME280;61637;47.760;-122.022;2023-08-01T00:40:01;101930.339;;;23.6;44.0
73422;BME280;61637;47.760;-122.022;2023-08-01T00:42:01;101930.339;;;23.7;44.0
73422;BME280;61637;47.760;-122.022;2023-08-01T00:44:01;101930.339;;;23.8;44.0
73422;BME280;61637;47.760;-122.022;2023-08-01T00:46:02;101930.339;;;23.8;44.0
73422;BME280;61637;47.760;-122.022;2023-08-01T00:48:01;101930.339;;;23.8;44.0
73422;BME280;61637;47.760;-122.022;2023-08-01T00:50:01;101930.339;;;23.9;45.0
73422;BME280;61637;47.760;-122.022;2023-08-01T00:52:01;101930.339;;;23.9;46.0
73422;BME280;61637;47.760;-122.022;2023-08-01T00:54:01;101930.339;;;23.9;43.0
73422;BME280;61637;47.760;-122.022;2023-08-01T00:56:01;101930.339;;;23.9;43.0
73422;BME280;61637;47.760;-122.022;2023-08-01T00:58:01;101930.339;;;23.9;46.0
73422;BME280;61637;47.760;-122.022;2023-08-01T01:00:01;101930.339;;;23.9;45.0
73422;BME280;61637;47.760;-122.022;2023-08-01T01:02:01;101930.339;;;23.8;45.0
73422;BME280;61637;47.760;-122.022;2023-08-01T01:04:01;101930.339;;;23.8;44.0
73422;BME280;61637;47.760;-122.022;2023-08-01T01:06:02;101930.339;;;23.7;44.0
73422;BME280;61637;47.760;-122.022;2023-08-01T01:08:01;101930.339;;;23.7;43.0
73422;BME280;61637;47.760;-122.022;2023-08-01T01:10:01;101930.339;;;23.7;43.0
73422;BME280;61637;47.760;-122.022;2023-08-01T01:12:01;101930.339;;;23.8;46.0
73422;BME280;61637;47.760;-122.022;2023-08-01T01:14:01;101930.339;;;23.8;47.0
73422;BME280;61637;47.760;-122.022;2023-08-01T01:16:01;101930.339;;;23.7;46.0
73422;BME280;61637;47.760;-122.022;2023-08-01T01:18:01;101930.339;;;23.6;47.0
73422;BME280;61637;47.760;-122.022;2023-08-01T01:20:01;101930.339;;;23.6;48.0
73422;BME280;61637;47.760;-122.022;2023-08-01T01:22:01;101930.339;;;23.4;47.0
73422;BME280;61637;47.760;-122.022;2023-08-01T01:24:01;101930.339;;;23.3;47.0
73422;BME280;61637;47.760;-122.022;2023-08-01T01:26:01;101930.339;;;23.2;48.0
73422;BME280;61637;47.760;-122.022;2023-08-01T01:28:01;101930.339;;;23.1;49.0
73422;BME280;61637;47.760;-122.022;2023-08-01T01:30:01;101930.339;;;23.0;49.0
73422;BME280;61637;47.760;-122.022;2023-08-01T01:32:01;101930.339;;;22.9;50.0
73422;BME280;61637;47.760;-122.022;2023-08-01T01:34:01;101930.339;;;22.9;50.0
73422;BME280;61637;47.760;-122.022;2023-08-01T01:36:01;101930.339;;;22.9;50.0
73422;BME280;61637;47.760;-122.022;2023-08-01T01:38:01;101930.339;;;22.9;50.0
73422;BME280;61637;47.760;-122.022;2023-08-01T01:40:01;101930.339;;;22.7;49.0
73422;BME280;61637;47.760;-122.022;2023-08-01T01:42:01;101930.339;;;22.7;50.0
73422;BME280;61637;47.760;-122.022;2023-08-01T01:44:01;101930.339;;;22.7;49.0
73422;BME280;61637;47.760;-122.022;2023-08-01T01:46:01;101930.339;;;22.7;49.0
73422;BME280;61637;47.760;-122.022;2023-08-01T01:48:01;101930.339;;;22.6;49.0
73422;BME280;61637;47.760;-122.022;2023-08-01T01:50:01;101930.339;;;22.5;50.0
73422;BME280;61637;47.760;-122.022;2023-08-01T01:52:01;101930.339;;;22.4;50.0
73422;BME280;61637;47.760;-122.022;2023-08-01T01:54:01;101930.339;;;22.2;51.0
73422;BME280;61637;47.760;-122.022;2023-08-01T01:56:01;101930.339;;;22.1;51.0
73422;BME280;61637;47.760;-122.022;2023-08-01T01:58:01;101930.339;;;21.8;51.0
73422;BME280;61637;47.760;-122.022;2023-08-01T02:00:01;101930.339;;;21.6;51.0
73422;BME280;61637;47.760;-122.022;2023-08-01T02:02:01;101930.339;;;21.3;52.0
73422;BME280;61637;47.760;-122.022;2023-08-01T02:04:01;101930.339;;;21.1;53.0
73422;BME280;61637;47.760;-122.022;2023-08-01T02:06:01;101930.339;;;20.9;53.0
73422;BME280;61637;47.760;-122.022;2023-08-01T02:08:01;101930.339;;;20.8;54.0
73422;BME280;61637;47.760;-122.022;2023-08-01T02:10:01;101930.339;;;20.7;54.0
73422;BME280;61637;47.760;-122.022;2023-08-01T02:12:01;101930.339;;;20.6;55.0
73422;BME280;61637;47.760;-122.022;2023-08-01T02:14:01;101930.339;;;20.5;54.0
73422;BME280;61637;47.760;-122.022;2023-08-01T02:16:01;101930.339;;;20.4;56.0
73422;BME280;61637;47.760;-122.022;2023-08-01T02:18:01;101930.339;;;20.4;56.0
73422;BME280;61637;47.760;-122.022;2023-08-01T02:20:01;101930.339;;;20.3;56.0
73422;BME280;61637;47.760;-122.022;2023-08-01T02:22:01;101930.339;;;20.2;55.0
73422;BME280;61637;47.760;-122.022;2023-08-01T02:24:01;101930.339;;;20.2;54.0
73422;BME280;61637;47.760;-122.022;2023-08-01T02:26:01;101930.339;;;20.1;55.0
73422;BME280;61637;47.760;-122.022;2023-08-01T02:28:01;101930.339;;;20.1;55.0
73422;BME280;61637;47.760;-122.022;2023-08-01T02:30:01;101930.339;;;19.9;55.0
73422;BME280;61637;47.760;-122.022;2023-08-01T02:32:01;101930.339;;;19.9;57.0
73422;BME280;61637;47.760;-122.022;2023-08-01T02:34:01;101930.339;;;19.9;56.0
73422;BME280;61637;47.760;-122.022;2023-08-01T02:36:01;101930.339;;;19.8;56.0
73422;BME280;61637;47.760;-122.022;2023-08-01T02:38:01;101930.339;;;19.8;57.0
73422;BME280;61637;47.760;-122.022;2023-08-01T02:40:02;101930.339;;;19.8;57.0
73422;BME280;61637;47.760;-122.022;2023-08-01T02:42:01;101930.339;;;19.7;57.0
73422;BME280;61637;47.760;-122.022;2023-08-01T02:44:01;101930.339;;;19.7;58.0
73422;BME280;61637;47.760;-122.022;2023-08-01T02:46:01;101930.339;;;19.7;57.0
73422;BME280;61637;47.760;-122.022;2023-08-01T02:48:01;101930.339;;;19.6;57.0
73422;BME280;61637;47.760;-122.022;2023-08-01T02:50:01;101930.339;;;19.5;57.0
73422;BME280;61637;47.760;-122.022;2023-08-01T02:52:01;101930.339;;;19.4;57.0
73422;BME280;61637;47.760;-122.022;2023-08-01T02:54:01;101930.339;;;19.3;57.0
73422;BME280;61637;47.760;-122.022;2023-08-01T02:56:01;101930.339;;;19.2;58.0
73422;BME280;61637;47.760;-122.022;2023-08-01T02:58:01;101930.339;;;19.2;58.0
73422;BME280;61637;47.760;-122.022;2023-08-01T03:00:01;101930.339;;;19.1;58.0
73422;BME280;61637;47.760;-122.022;2023-08-01T03:02:01;101930.339;;;19.0;58.0
73422;BME280;61637;47.760;-122.022;2023-08-01T03:04:01;101930.339;;;18.9;59.0
73422;BME280;61637;47.760;-122.022;2023-08-01T03:06:01;101930.339;;;18.8;59.0
73422;BME280;61637;47.760;-122.022;2023-08-01T03:08:01;101930.339;;;18.8;59.0
73422;BME280;61637;47.760;-122.022;2023-08-01T03:10:01;101930.339;;;18.7;60.0
73422;BME280;61637;47.760;-122.022;2023-08-01T03:12:01;101930.339;;;18.6;60.0
73422;BME280;61637;47.760;-122.022;2023-08-01T03:14:01;101930.339;;;18.5;60.0
73422;BME280;61637;47.760;-122.022;2023-08-01T03:16:01;101930.339;;;18.4;60.0
73422;BME280;61637;47.760;-122.022;2023-08-01T03:18:01;101930.339;;;18.3;61.0
73422;BME280;61637;47.760;-122.022;2023-08-01T03:20:01;101930.339;;;18.2;61.0
73422;BME280;61637;47.760;-122.022;2023-08-01T03:22:01;101930.339;;;18.1;61.0
73422;BME280;61637;47.760;-122.022;2023-08-01T03:24:01;101930.339;;;18.1;61.0
73422;BME280;61637;47.760;-122.022;2023-08-01T03:26:01;101930.339;;;17.9;61.0
73422;BME280;61637;47.760;-122.022;2023-08-01T03:28:01;101930.339;;;17.9;62.0
73422;BME280;61637;47.760;-122.022;2023-08-01T03:30:01;101930.339;;;17.8;62.0
73422;BME280;61637;47.760;-122.022;2023-08-01T03:32:01;101930.339;;;17.8;62.0
73422;BME280;61637;47.760;-122.022;2023-08-01T03:34:01;101930.339;;;17.7;62.0
73422;BME280;61637;47.760;-122.022;2023-08-01T03:36:01;101930.339;;;17.7;63.0
73422;BME280;61637;47.760;-122.022;2023-08-01T03:38:01;101930.339;;;17.6;63.0
73422;BME280;61637;47.760;-122.022;2023-08-01T03:40:01;101930.339;;;17.5;64.0
73422;BME280;61637;47.760;-122.022;2023-08-01T03:42:01;101930.339;;;17.4;64.0
73422;BME280;61637;47.760;-122.022;2023-08-01T03:44:01;101930.339;;;17.4;64.0
73422;BME280;61637;47.760;-122.022;2023-08-01T03:46:01;101930.339;;;17.3;64.0
73422;BME280;61637;47.760;-122.022;2023-08-01T03:48:01;101930.339;;;17.3;65.0
73422;BME280;61637;47.760;-122.022;2023-08-01T03:50:01;101930.339;;;17.2;65.0
73422;BME280;61637;47.760;-122.022;2023-08-01T03:52:01;101930.339;;;17.2;65.0
73422;BME280;61637;47.760;-122.022;2023-08-01T03:54:01;101930.339;;;17.1;65.0
73422;BME280;61637;47.760;-122.022;2023-08-01T03:56:01;101930.339;;;17.1;66.0
73422;BME280;61637;47.760;-122.022;2023-08-01T03:58:01;101930.339;;;17.0;66.0
73422;BME280;61637;47.760;-122.022;2023-08-01T04:00:01;101930.339;;;16.9;66.0
73422;BME280;61637;47.760;-122.022;2023-08-01T04:02:01;101930.339;;;16.9;66.0
73422;BME280;61637;47.760;-122.022;2023-08-01T04:04:01;101930.339;;;16.8;67.0
73422;BME280;61637;47.760;-122.022;2023-08-01T04:06:01;101930.339;;;16.8;67.0
73422;BME280;61637;47.760;-122.022;2023-08-01T04:08:01;101930.339;;;16.7;67.0
73422;BME280;61637;47.760;-122.022;2023-08-01T04:10:01;101930.339;;;16.7;67.0
73422;BME280;61637;47.760;-122.022;2023-08-01T04:12:01;101930.339;;;16.7;68.0
73422;BME280;61637;47.760;-122.022;2023-08-01T04:14:01;101930.339;;;16.6;68.0
73422;BME280;61637;47.760;-122.022;2023-08-01T04:16:01;101930.339;;;16.6;68.0
73422;BME280;61637;47.760;-122.022;2023-08-01T04:18:01;101930.339;;;16.6;68.0
73422;BME280;61637;47.760;-122.022;2023-08-01T04:20:01;101930.339;;;16.5;69.0
73422;BME280;61637;47.760;-122.022;2023-08-01T04:22:01;101930.339;;;16.4;69.0
73422;BME280;61637;47.760;-122.022;2023-08-01T04:24:01;101930.339;;;16.4;69.0
73422;BME280;61637;47.760;-122.022;2023-08-01T04:26:01;101930.339;;;16.4;69.0
73422;BME280;61637;47.760;-122.022;2023-08-01T04:28:01;101930.339;;;16.3;69.0
73422;BME280;61637;47.760;-122.022;2023-08-01T04:30:01;101930.339;;;16.3;69.0
73422;BME280;61637;47.760;-122.022;2023-08-01T04:32:01;101930.339;;;16.2;70.0
73422;BME280;61637;47.760;-122.022;2023-08-01T04:34:01;101930.339;;;16.2;70.0
73422;BME280;61637;47.760;-122.022;2023-08-01T04:36:01;101930.339;;;16.2;70.0
73422;BME280;61637;47.760;-122.022;2023-08-01T04:38:01;101930.339;;;16.2;70.0
73422;BME280;61637;47.760;-122.022;2023-08-01T04:40:01;101930.339;;;16.2;71.0
73422;BME280;61637;47.760;-122.022;2023-08-01T04:42:01;101930.339;;;16.1;71.0
73422;BME280;61637;47.760;-122.022;2023-08-01T04:44:01;101930.339;;;16.1;71.0
73422;BME280;61637;47.760;-122.022;2023-08-01T04:46:01;101930.339;;;16.1;71.0
73422;BME280;61637;47.760;-122.022;2023-08-01T04:48:01;101930.339;;;16.0;71.0
73422;BME280;61637;47.760;-122.022;2023-08-01T04:50:01;101930.339;;;15.9;72.0
73422;BME280;61637;47.760;-122.022;2023-08-01T04:52:01;101930.339;;;15.9;72.0
73422;BME280;61637;47.760;-122.022;2023-08-01T04:54:01;101930.339;;;15.9;72.0
73422;BME280;61637;47.760;-122.022;2023-08-01T04:56:01;101930.339;;;15.8;72.0
73422;BME280;61637;47.760;-122.022;2023-08-01T04:58:01;101930.339;;;15.8;73.0
73422;BME280;61637;47.760;-122.022;2023-08-01T05:00:01;101930.339;;;15.8;73.0
73422;BME280;61637;47.760;-122.022;2023-08-01T05:02:01;101930.339;;;15.7;73.0
73422;BME280;61637;47.760;-122.022;2023-08-01T05:04:01;101930.339;;;15.7;73.0
73422;BME280;61637;47.760;-122.022;2023-08-01T05:06:01;101930.339;;;15.7;73.0
73422;BME280;61637;47.760;-122.022;2023-08-01T05:08:01;101930.339;;;15.6;74.0
73422;BME280;61637;47.760;-122.022;2023-08-01T05:10:01;101930.339;;;15.6;74.0
73422;BME280;61637;47.760;-122.022;2023-08-01T05:12:01;101930.339;;;15.6;74.0
73422;BME280;61637;47.760;-122.022;2023-08-01T05:14:01;101930.339;;;15.6;74.0
73422;BME280;61637;47.760;-122.022;2023-08-01T05:16:01;101930.339;;;15.4;74.0
73422;BME280;61637;47.760;-122.022;2023-08-01T05:18:01;101930.339;;;15.4;74.0
73422;BME280;61637;47.760;-122.022;2023-08-01T05:20:01;101930.339;;;15.4;75.0
73422;BME280;61637;47.760;-122.022;2023-08-01T05:22:01;101930.339;;;15.4;75.0
73422;BME280;61637;47.760;-122.022;2023-08-01T05:24:01;101930.339;;;15.3;75.0
73422;BME280;61637;47.760;-122.022;2023-08-01T05:26:01;101930.339;;;15.3;75.0
73422;BME280;61637;47.760;-122.022;2023-08-01T05:28:01;101930.339;;;15.3;76.0
73422;BME280;61637;47.760;-122.022;2023-08-01T05:30:01;101930.339;;;15.2;76.0
73422;BME280;61637;47.760;-122.022;2023-08-01T05:32:01;101930.339;;;15.2;76.0
73422;BME280;61637;47.760;-122.022;2023-08-01T05:34:01;101930.339;;;15.1;76.0
73422;BME280;61637;47.760;-122.022;2023-08-01T05:36:01;101930.339;;;15.1;76.0
73422;BME280;61637;47.760;-122.022;2023-08-01T05:38:01;101930.339;;;15.1;77.0
73422;BME280;61637;47.760;-122.022;2023-08-01T05:40:01;101930.339;;;15.0;77.0
73422;BME280;61637;47.760;-122.022;2023-08-01T05:42:01;101930.339;;;15.0;77.0
73422;BME280;61637;47.760;-122.022;2023-08-01T05:44:01;101930.339;;;14.9;77.0
73422;BME280;61637;47.760;-122.022;2023-08-01T05:46:01;101930.339;;;14.9;77.0
73422;BME280;61637;47.760;-122.022;2023-08-01T05:48:01;101930.339;;;14.8;77.0
73422;BME280;61637;47.760;-122.022;2023-08-01T05:50:01;101930.339;;;14.8;78.0
73422;BME280;61637;47.760;-122.022;2023-08-01T05:52:01;101930.339;;;14.8;78.0
73422;BME280;61637;47.760;-122.022;2023-08-01T05:54:01;101930.339;;;14.7;78.0
73422;BME280;61637;47.760;-122.022;2023-08-01T05:56:01;101930.339;;;14.7;78.0
73422;BME280;61637;47.760;-122.022;2023-08-01T05:58:01;101930.339;;;14.7;78.0
73422;BME280;61637;47.760;-122.022;2023-08-01T06:00:01;101930.339;;;14.6;78.0
73422;BME280;61637;47.760;-122.022;2023-08-01T06:02:01;101930.339;;;14.6;79.0
73422;BME280;61637;47.760;-122.022;2023-08-01T06:04:01;101930.339;;;14.5;79.0
73422;BME280;61637;47.760;-122.022;2023-08-01T06:06:01;101930.339;;;14.5;79.0
73422;BME280;61637;47.760;-122.022;2023-08-01T06:08:01;101930.339;;;14.4;79.0
73422;BME280;61637;47.760;-122.022;2023-08-01T06:10:01;101930.339;;;14.4;80.0
73422;BME280;61637;47.760;-122.022;2023-08-01T06:12:01;101930.339;;;14.4;80.0
73422;BME280;61637;47.760;-122.022;2023-08-01T06:14:01;101930.339;;;14.3;80.0
73422;BME280;61637;47.760;-122.022;2023-08-01T06:16:01;101930.339;;;14.3;80.0
73422;BME280;61637;47.760;-122.022;2023-08-01T06:18:01;101930.339;;;14.3;80.0
73422;BME280;61637;47.760;-122.022;2023-08-01T06:20:01;101930.339;;;14.3;80.0
73422;BME280;61637;47.760;-122.022;2023-08-01T06:22:01;101930.339;;;14.3;80.0
73422;BME280;61637;47.760;-122.022;2023-08-01T06:24:01;101930.339;;;14.2;80.0
73422;BME280;61637;47.760;-122.022;2023-08-01T06:26:01;101930.339;;;14.2;80.0
73422;BME280;61637;47.760;-122.022;2023-08-01T06:28:01;101930.339;;;14.2;80.0
73422;BME280;61637;47.760;-122.022;2023-08-01T06:30:01;101930.339;;;14.2;80.0
73422;BME280;61637;47.760;-122.022;2023-08-01T06:32:01;101930.339;;;14.1;80.0
73422;BME280;61637;47.760;-122.022;2023-08-01T06:34:01;101930.339;;;14.1;80.0
73422;BME280;61637;47.760;-122.022;2023-08-01T06:36:01;101930.339;;;14.1;80.0
73422;BME280;61637;47.760;-122.022;2023-08-01T06:38:01;101930.339;;;14.1;80.0
73422;BME280;61637;47.760;-122.022;2023-08-01T06:40:01;101930.339;;;14.0;80.0
73422;BME280;61637;47.760;-122.022;2023-08-01T06:42:01;101930.339;;;14.0;80.0
73422;BME280;61637;47.760;-122.022;2023-08-01T06:44:01;101930.339;;;13.9;80.0
73422;BME280;61637;47.760;-122.022;2023-08-01T06:46:01;101930.339;;;13.9;80.0
73422;BME280;61637;47.760;-122.022;2023-08-01T06:48:01;101930.339;;;13.9;80.0
73422;BME280;61637;47.760;-122.022;2023-08-01T06:50:01;101930.339;;;13.9;80.0
73422;BME280;61637;47.760;-122.022;2023-08-01T06:52:01;101930.339;;;13.9;80.0
73422;BME280;61637;47.760;-122.022;2023-08-01T06:54:01;101930.339;;;13.8;80.0
73422;BME280;61637;47.760;-122.022;2023-08-01T06:56:01;101930.339;;;13.8;81.0
73422;BME280;61637;47.760;-122.022;2023-08-01T06:58:01;101930.339;;;13.8;81.0
73422;BME280;61637;47.760;-122.022;2023-08-01T07:00:01;101930.339;;;13.7;81.0
73422;BME280;61637;47.760;-122.022;2023-08-01T07:02:01;101930.339;;;13.7;81.0
73422;BME280;61637;47.760;-122.022;2023-08-01T07:04:01;101930.339;;;13.7;81.0
73422;BME280;61637;47.760;-122.022;2023-08-01T07:06:01;101930.339;;;13.7;81.0
73422;BME280;61637;47.760;-122.022;2023-08-01T07:08:01;101930.339;;;13.7;81.0
73422;BME280;61637;47.760;-122.022;2023-08-01T07:10:01;101930.339;;;13.7;81.0
73422;BME280;61637;47.760;-122.022;2023-08-01T07:12:01;101930.339;;;13.6;81.0
73422;BME280;61637;47.760;-122.022;2023-08-01T07:14:01;101930.339;;;13.6;81.0
73422;BME280;61637;47.760;-122.022;2023-08-01T07:16:01;101930.339;;;13.6;81.0
73422;BME280;61637;47.760;-122.022;2023-08-01T07:18:01;101930.339;;;13.6;81.0
73422;BME280;61637;47.760;-122.022;2023-08-01T07:20:01;101930.339;;;13.6;81.0
73422;BME280;61637;47.760;-122.022;2023-08-01T07:22:01;101930.339;;;13.6;81.0
73422;BME280;61637;47.760;-122.022;2023-08-01T07:24:01;101930.339;;;13.5;81.0
73422;BME280;61637;47.760;-122.022;2023-08-01T07:26:01;101930.339;;;13.6;81.0
73422;BME280;61637;47.760;-122.022;2023-08-01T07:28:01;101930.339;;;13.5;81.0
73422;BME280;61637;47.760;-122.022;2023-08-01T07:30:01;101930.339;;;13.5;81.0
73422;BME280;61637;47.760;-122.022;2023-08-01T07:32:01;101930.339;;;13.5;82.0
73422;BME280;61637;47.760;-122.022;2023-08-01T07:34:01;101930.339;;;13.5;82.0
73422;BME280;61637;47.760;-122.022;2023-08-01T07:36:01;101930.339;;;13.5;82.0
73422;BME280;61637;47.760;-122.022;2023-08-01T07:38:01;101930.339;;;13.5;82.0
73422;BME280;61637;47.760;-122.022;2023-08-01T07:40:01;101930.339;;;13.5;82.0
73422;BME280;61637;47.760;-122.022;2023-08-01T07:42:01;101930.339;;;13.5;82.0
73422;BME280;61637;47.760;-122.022;2023-08-01T07:44:01;101930.339;;;13.4;82.0
73422;BME280;61637;47.760;-122.022;2023-08-01T07:46:01;101930.339;;;13.5;82.0
73422;BME280;61637;47.760;-122.022;2023-08-01T07:48:01;101930.339;;;13.4;82.0
73422;BME280;61637;47.760;-122.022;2023-08-01T07:50:01;101930.339;;;13.4;82.0
73422;BME280;61637;47.760;-122.022;2023-08-01T07:52:01;101930.339;;;13.4;82.0
73422;BME280;61637;47.760;-122.022;2023-08-01T07:54:01;101930.339;;;13.4;82.0
73422;BME280;61637;47.760;-122.022;2023-08-01T07:56:01;101930.339;;;13.4;82.0
73422;BME280;61637;47.760;-122.022;2023-08-01T07:58:01;101930.339;;;13.4;82.0
73422;BME280;61637;47.760;-122.022;2023-08-01T08:00:01;101930.339;;;13.5;82.0
73422;BME280;61637;47.760;-122.022;2023-08-01T08:02:01;101930.339;;;13.4;82.0
73422;BME280;61637;47.760;-122.022;2023-08-01T08:04:01;101930.339;;;13.4;82.0
73422;BME280;61637;47.760;-122.022;2023-08-01T08:06:01;101930.339;;;13.4;82.0
73422;BME280;61637;47.760;-122.022;2023-08-01T08:08:01;101930.339;;;13.4;82.0
73422;BME280;61637;47.760;-122.022;2023-08-01T08:10:01;101930.339;;;13.4;82.0
73422;BME280;61637;47.760;-122.022;2023-08-01T08:12:01;101930.339;;;13.4;82.0
73422;BME280;61637;47.760;-122.022;2023-08-01T08:14:01;101930.339;;;13.3;82.0
73422;BME280;61637;47.760;-122.022;2023-08-01T08:16:01;101930.339;;;13.3;82.0
73422;BME280;61637;47.760;-122.022;2023-08-01T08:18:01;101930.339;;;13.3;82.0
73422;BME280;61637;47.760;-122.022;2023-08-01T08:20:01;101930.339;;;13.3;83.0
73422;BME280;61637;47.760;-122.022;2023-08-01T08:22:01;101930.339;;;13.3;83.0
73422;BME280;61637;47.760;-122.022;2023-08-01T08:24:01;101930.339;;;13.3;83.0
73422;BME280;61637;47.760;-122.022;2023-08-01T08:26:01;101930.339;;;13.3;83.0
73422;BME280;61637;47.760;-122.022;2023-08-01T08:28:01;101930.339;;;13.3;83.0
73422;BME280;61637;47.760;-122.022;2023-08-01T08:30:01;101930.339;;;13.3;83.0
73422;BME280;61637;47.760;-122.022;2023-08-01T08:32:01;101930.339;;;13.3;83.0
73422;BME280;61637;47.760;-122.022;2023-08-01T08:34:01;101930.339;;;13.3;83.0
73422;BME280;61637;47.760;-122.022;2023-08-01T08:36:01;101930.339;;;13.2;83.0
73422;BME280;61637;47.760;-122.022;2023-08-01T08:38:01;101930.339;;;13.2;83.0
73422;BME280;61637;47.760;-122.022;2023-08-01T08:40:01;101930.339;;;13.2;83.0
73422;BME280;61637;47.760;-122.022;2023-08-01T08:42:01;101930.339;;;13.2;83.0
73422;BME280;61637;47.760;-122.022;2023-08-01T08:44:01;101930.339;;;13.2;83.0
73422;BME280;61637;47.760;-122.022;2023-08-01T08:46:02;101930.339;;;13.1;83.0
73422;BME280;61637;47.760;-122.022;2023-08-01T08:48:01;101930.339;;;13.0;83.0
73422;BME280;61637;47.760;-122.022;2023-08-01T08:50:01;101930.339;;;12.9;83.0
73422;BME280;61637;47.760;-122.022;2023-08-01T08:52:01;101930.339;;;12.8;84.0
73422;BME280;61637;47.760;-122.022;2023-08-01T08:54:01;101930.339;;;12.8;84.0
73422;BME280;61637;47.760;-122.022;2023-08-01T08:56:01;101930.339;;;12.7;84.0
73422;BME280;61637;47.760;-122.022;2023-08-01T08:58:01;101930.339;;;12.7;84.0
73422;BME280;61637;47.760;-122.022;2023-08-01T09:00:01;101930.339;;;12.7;85.0
73422;BME280;61637;47.760;-122.022;2023-08-01T09:02:01;101930.339;;;12.6;85.0
73422;BME280;61637;47.760;-122.022;2023-08-01T09:04:01;101930.339;;;12.6;85.0
73422;BME280;61637;47.760;-122.022;2023-08-01T09:06:04;101930.339;;;12.6;85.0
73422;BME280;61637;47.760;-122.022;2023-08-01T09:08:01;101930.339;;;12.6;85.0
73422;BME280;61637;47.760;-122.022;2023-08-01T09:10:01;101930.339;;;12.5;85.0
73422;BME280;61637;47.760;-122.022;2023-08-01T09:12:01;101930.339;;;12.5;85.0
73422;BME280;61637;47.760;-122.022;2023-08-01T09:14:01;101930.339;;;12.5;85.0
73422;BME280;61637;47.760;-122.022;2023-08-01T09:16:01;101930.339;;;12.4;86.0
73422;BME280;61637;47.760;-122.022;2023-08-01T09:18:01;101930.339;;;12.4;86.0
73422;BME280;61637;47.760;-122.022;2023-08-01T09:20:04;101930.339;;;12.4;86.0
73422;BME280;61637;47.760;-122.022;2023-08-01T09:22:01;101930.339;;;12.4;86.0
73422;BME280;61637;47.760;-122.022;2023-08-01T09:26:01;101930.339;;;12.4;86.0
73422;BME280;61637;47.760;-122.022;2023-08-01T09:28:01;101930.339;;;12.4;86.0
73422;BME280;61637;47.760;-122.022;2023-08-01T09:30:07;101930.339;;;12.3;86.0
73422;BME280;61637;47.760;-122.022;2023-08-01T09:32:10;101930.339;;;12.3;86.0
73422;BME280;61637;47.760;-122.022;2023-08-01T09:34:01;101930.339;;;12.3;86.0
73422;BME280;61637;47.760;-122.022;2023-08-01T09:36:01;101930.339;;;12.3;86.0
73422;BME280;61637;47.760;-122.022;2023-08-01T09:38:01;101930.339;;;12.3;86.0
73422;BME280;61637;47.760;-122.022;2023-08-01T09:40:01;101930.339;;;12.2;86.0
73422;BME280;61637;47.760;-122.022;2023-08-01T09:42:02;101930.339;;;12.2;86.0
73422;BME280;61637;47.760;-122.022;2023-08-01T09:44:02;101930.339;;;12.2;86.0
73422;BME280;61637;47.760;-122.022;2023-08-01T09:46:01;101930.339;;;12.2;86.0
73422;BME280;61637;47.760;-122.022;2023-08-01T09:48:01;101930.339;;;12.2;86.0
73422;BME280;61637;47.760;-122.022;2023-08-01T09:50:01;101930.339;;;12.2;86.0
73422;BME280;61637;47.760;-122.022;2023-08-01T09:52:01;101930.339;;;12.2;86.0
73422;BME280;61637;47.760;-122.022;2023-08-01T09:54:01;101930.339;;;12.2;86.0
73422;BME280;61637;47.760;-122.022;2023-08-01T09:56:01;101930.339;;;12.2;87.0
73422;BME280;61637;47.760;-122.022;2023-08-01T09:58:01;101930.339;;;12.2;87.0
73422;BME280;61637;47.760;-122.022;2023-08-01T10:00:01;101930.339;;;12.2;86.0
73422;BME280;61637;47.760;-122.022;2023-08-01T10:02:01;101930.339;;;12.2;86.0
73422;BME280;61637;47.760;-122.022;2023-08-01T10:04:01;101930.339;;;12.2;86.0
73422;BME280;61637;47.760;-122.022;2023-08-01T10:06:01;101930.339;;;12.2;86.0
73422;BME280;61637;47.760;-122.022;2023-08-01T10:08:02;101930.339;;;12.2;87.0
73422;BME280;61637;47.760;-122.022;2023-08-01T10:10:01;101930.339;;;12.2;87.0
73422;BME280;61637;47.760;-122.022;2023-08-01T10:12:01;101930.339;;;12.2;87.0